createdAt,value
2023-02-22T00:01:08.842Z,3.90
2023-02-22T00:03:39.543Z,3.92
2023-02-22T00:06:08.531Z,3.99
2023-02-22T00:08:39.027Z,3.99
2023-02-22T00:11:10.751Z,3.96
2023-02-22T00:13:39.673Z,3.78
2023-02-22T00:16:11.428Z,3.51
2023-02-22T00:18:41.683Z,3.72
2023-02-22T00:21:10.802Z,3.72
2023-02-22T00:23:43.542Z,3.82
2023-02-22T00:26:11.643Z,3.85
2023-02-22T00:28:39.906Z,3.84
2023-02-22T00:31:10.513Z,4.00
2023-02-22T00:33:47.496Z,4.06
2023-02-22T00:36:20.673Z,3.92
2023-02-22T00:38:50.032Z,3.81
2023-02-22T00:41:18.376Z,3.71
2023-02-22T00:43:46.933Z,3.67
2023-02-22T00:46:15.284Z,3.67
2023-02-22T00:48:44.511Z,3.51
2023-02-22T00:51:12.284Z,3.34
2023-02-22T00:53:41.790Z,3.42
2023-02-22T00:56:09.862Z,3.39
2023-02-22T00:58:37.712Z,3.21
2023-02-22T01:01:05.472Z,3.13
2023-02-22T01:03:33.106Z,3.11
2023-02-22T01:06:02.325Z,3.12
2023-02-22T01:08:31.355Z,3.09
2023-02-22T01:10:59.180Z,3.24
2023-02-22T01:13:26.941Z,3.29
2023-02-22T01:15:56.648Z,3.37
2023-02-22T01:18:25.973Z,3.32
2023-02-22T01:20:53.859Z,3.15
2023-02-22T01:23:22.691Z,3.28
2023-02-22T01:25:54.176Z,3.22
2023-02-22T01:28:22.391Z,3.19
2023-02-22T01:30:50.636Z,3.08
2023-02-22T01:33:18.555Z,2.99
2023-02-22T01:35:46.829Z,2.97
2023-02-22T01:38:16.078Z,3.00
2023-02-22T01:40:48.696Z,2.82
2023-02-22T01:43:20.223Z,2.78
2023-02-22T01:45:55.478Z,2.55
2023-02-22T01:48:27.231Z,2.61
2023-02-22T01:50:58.813Z,2.80
2023-02-22T01:53:30.205Z,2.65
2023-02-22T01:56:00.951Z,2.72
2023-02-22T01:58:29.729Z,2.99
2023-02-22T02:00:57.919Z,3.04
2023-02-22T02:03:29.749Z,3.24
2023-02-22T02:05:59.894Z,3.28
2023-02-22T02:08:33.081Z,3.27
2023-02-22T02:11:03.422Z,3.30
2023-02-22T02:13:30.978Z,3.33
2023-02-22T02:15:59.419Z,3.19
2023-02-22T02:18:28.451Z,3.23
2023-02-22T02:21:26.804Z,3.24
2023-02-22T02:24:13.402Z,3.19
2023-02-22T02:27:03.578Z,3.15
2023-02-22T02:30:04.902Z,3.29
2023-02-22T02:32:46.406Z,3.08
2023-02-22T02:35:21.626Z,3.04
2023-02-22T02:37:55.161Z,2.79
2023-02-22T02:40:28.708Z,2.85
2023-02-22T02:43:02.002Z,2.71
2023-02-22T02:45:33.605Z,2.83
2023-02-22T02:48:03.618Z,3.05
2023-02-22T02:50:34.842Z,3.09
2023-02-22T02:53:04.098Z,3.11
2023-02-22T02:55:35.056Z,2.94
2023-02-22T02:58:04.633Z,2.98
2023-02-22T03:00:39.373Z,3.06
2023-02-22T03:03:20.157Z,3.02
2023-02-22T03:06:03.327Z,2.97
2023-02-22T03:08:35.585Z,3.01
2023-02-22T03:11:14.939Z,3.08
2023-02-22T03:13:59.296Z,2.89
2023-02-22T03:16:33.456Z,2.82
2023-02-22T03:19:07.529Z,2.86
2023-02-22T03:21:43.445Z,2.79
2023-02-22T03:24:14.962Z,2.74
2023-02-22T03:26:45.879Z,2.80
2023-02-22T03:29:16.071Z,2.91
2023-02-22T03:31:48.428Z,2.79
2023-02-22T03:34:22.371Z,2.85
2023-02-22T03:36:55.871Z,2.90
2023-02-22T03:39:31.473Z,2.82
2023-02-22T03:42:02.082Z,2.59
2023-02-22T03:44:30.892Z,2.43
2023-02-22T03:47:01.959Z,2.57
2023-02-22T03:49:34.918Z,2.27
2023-02-22T03:52:03.776Z,2.33
2023-02-22T03:54:32.318Z,2.56
2023-02-22T03:57:02.412Z,2.47
2023-02-22T03:59:30.239Z,2.24
2023-02-22T04:01:58.927Z,2.17
2023-02-22T04:04:27.305Z,2.29
2023-02-22T04:06:57.352Z,2.36
2023-02-22T04:09:28.808Z,2.21
2023-02-22T04:18:18.955Z,2.50
2023-02-22T04:20:47.546Z,2.58
2023-02-22T04:23:17.672Z,2.55
2023-02-22T04:25:45.610Z,2.50
2023-02-22T04:28:14.164Z,2.25
2023-02-22T04:30:44.218Z,2.25
2023-02-22T04:33:16.639Z,2.23
2023-02-22T04:35:45.278Z,2.29
2023-02-22T04:38:13.512Z,2.40
2023-02-22T04:40:43.044Z,2.36
2023-02-22T04:43:10.640Z,2.27
2023-02-22T04:45:38.758Z,2.01
2023-02-22T04:48:07.817Z,2.15
2023-02-22T04:54:04.072Z,2.48
2023-02-22T05:00:15.625Z,1.88
2023-02-22T05:03:35.309Z,2.28
2023-02-22T05:06:03.657Z,2.58
2023-02-22T05:08:31.510Z,2.66
2023-02-22T05:10:59.575Z,2.76
2023-02-22T05:13:29.759Z,2.87
2023-02-22T05:15:57.932Z,3.05
2023-02-22T05:18:25.891Z,3.25
2023-02-22T05:20:56.990Z,3.33
2023-02-22T05:23:24.695Z,3.21
2023-02-22T05:25:53.737Z,2.67
2023-02-22T05:28:22.052Z,3.03
2023-02-22T05:30:50.973Z,3.35
2023-02-22T05:33:18.531Z,3.36
2023-02-22T05:35:46.261Z,3.42
2023-02-22T05:38:15.194Z,3.48
2023-02-22T05:40:43.813Z,3.50
2023-02-22T05:43:11.818Z,3.58
2023-02-22T05:45:39.397Z,3.58
2023-02-22T05:48:08.747Z,3.41
2023-02-22T05:50:36.615Z,3.29
2023-02-22T05:53:05.889Z,3.36
2023-02-22T05:55:33.576Z,3.51
2023-02-22T05:58:01.917Z,3.58
2023-02-22T06:00:32.005Z,3.57
2023-02-22T06:03:01.566Z,3.56
2023-02-22T06:05:31.747Z,3.58
2023-02-22T06:08:00.507Z,3.50
2023-02-22T06:10:29.517Z,3.62
2023-02-22T06:12:58.093Z,3.59
2023-02-22T06:15:26.779Z,3.58
2023-02-22T06:17:55.621Z,3.56
2023-02-22T06:20:24.671Z,3.54
2023-02-22T06:22:55.156Z,3.52
2023-02-22T06:25:24.956Z,3.41
2023-02-22T06:27:52.438Z,3.42
2023-02-22T06:30:22.830Z,3.42
2023-02-22T06:32:50.652Z,3.29
2023-02-22T06:35:18.283Z,3.09
2023-02-22T06:37:46.075Z,3.35
2023-02-22T06:40:15.738Z,3.41
2023-02-22T06:42:43.273Z,3.52
2023-02-22T06:45:11.322Z,3.49
2023-02-22T06:47:40.311Z,3.52
2023-02-22T06:50:09.280Z,3.50
2023-02-22T06:52:36.765Z,3.54
2023-02-22T06:55:04.385Z,3.59
2023-02-22T06:57:33.279Z,3.53
2023-02-22T07:00:00.765Z,3.54
2023-02-22T07:02:28.254Z,3.55
2023-02-22T07:04:55.734Z,3.55
2023-02-22T07:07:25.118Z,3.66
2023-02-22T07:09:52.620Z,3.67
2023-02-22T07:12:20.152Z,3.66
2023-02-22T07:14:49.154Z,3.72
2023-02-22T07:17:16.711Z,3.73
2023-02-22T07:19:44.170Z,3.81
2023-02-22T07:22:11.672Z,3.83
2023-02-22T07:24:40.921Z,3.91
2023-02-22T07:27:08.410Z,3.88
2023-02-22T07:29:36.478Z,3.93
2023-02-22T07:32:05.481Z,3.85
2023-02-22T07:34:32.966Z,3.85
2023-02-22T07:37:00.461Z,3.98
2023-02-22T07:39:28.102Z,4.05
2023-02-22T07:41:55.638Z,4.02
2023-02-22T07:44:23.101Z,4.03
2023-02-22T07:46:51.043Z,4.06
2023-02-22T07:49:20.176Z,4.06
2023-02-22T07:51:47.711Z,4.09
2023-02-22T07:54:15.230Z,4.02
2023-02-22T07:56:46.891Z,4.12
2023-02-22T07:59:14.666Z,4.17
2023-02-22T08:01:42.536Z,4.19
2023-02-22T08:04:10.070Z,4.30
2023-02-22T08:06:38.930Z,4.35
2023-02-22T08:09:06.403Z,4.38
2023-02-22T08:11:34.090Z,4.35
2023-02-22T08:14:01.551Z,4.45
2023-02-22T08:16:29.112Z,4.60
2023-02-22T08:18:56.667Z,4.56
2023-02-22T08:21:24.176Z,4.53
2023-02-22T08:23:54.379Z,4.52
2023-02-22T08:26:21.982Z,4.50
2023-02-22T08:28:49.717Z,4.49
2023-02-22T08:31:17.637Z,4.55
2023-02-22T08:33:48.791Z,4.63
2023-02-22T08:36:16.336Z,4.60
2023-02-22T08:38:43.833Z,4.56
2023-02-22T08:41:12.872Z,4.78
2023-02-22T08:43:40.403Z,4.88
2023-02-22T08:46:08.045Z,4.91
2023-02-22T08:48:35.569Z,4.93
2023-02-22T08:51:03.027Z,4.97
2023-02-22T08:53:32.715Z,5.00
2023-02-22T08:56:00.203Z,5.12
2023-02-22T08:58:29.082Z,5.13
2023-02-22T09:00:56.575Z,5.14
2023-02-22T09:03:24.186Z,5.23
2023-02-22T09:05:52.864Z,5.35
2023-02-22T09:08:20.376Z,5.42
2023-02-22T09:10:48.025Z,5.54
2023-02-22T09:13:15.552Z,5.62
2023-02-22T09:15:44.452Z,5.73
2023-02-22T09:18:14.534Z,5.83
2023-02-22T09:20:42.831Z,5.88
2023-02-22T09:23:10.611Z,5.76
2023-02-22T09:25:38.777Z,5.36
2023-02-22T09:28:06.687Z,5.31
2023-02-22T09:30:35.951Z,5.36
2023-02-22T09:33:06.760Z,5.57
2023-02-22T09:35:36.153Z,5.84
2023-02-22T09:38:06.116Z,6.10
2023-02-22T09:40:40.910Z,6.10
2023-02-22T09:43:32.289Z,5.75
2023-02-22T09:46:11.932Z,5.91
2023-02-22T09:48:52.732Z,5.88
2023-02-22T09:51:21.651Z,5.81
2023-02-22T09:53:50.685Z,6.19
2023-02-22T09:56:20.886Z,6.24
2023-02-22T09:58:52.295Z,6.56
2023-02-22T10:01:27.114Z,6.76
2023-02-22T10:04:01.662Z,6.69
2023-02-22T10:06:32.220Z,6.78
2023-02-22T10:09:02.782Z,6.82
2023-02-22T10:11:39.050Z,6.83
2023-02-22T10:14:23.220Z,6.41
2023-02-22T10:16:55.572Z,6.25
2023-02-22T10:19:29.105Z,6.23
2023-02-22T10:22:09.510Z,6.61
2023-02-22T10:24:45.471Z,6.88
2023-02-22T10:27:17.576Z,6.67
2023-02-22T10:29:47.498Z,6.60
2023-02-22T10:32:20.569Z,6.82
2023-02-22T10:34:52.755Z,6.81
2023-02-22T10:37:25.429Z,6.71
2023-02-22T10:39:56.432Z,7.01
2023-02-22T10:42:26.491Z,6.83
2023-02-22T10:44:55.118Z,6.80
2023-02-22T10:47:22.965Z,7.01
2023-02-22T10:49:53.556Z,7.36
2023-02-22T10:52:25.893Z,6.89
2023-02-22T10:55:00.975Z,7.19
2023-02-22T10:57:36.979Z,7.24
2023-02-22T11:00:20.267Z,7.04
2023-02-22T11:02:53.417Z,7.50
2023-02-22T11:05:31.411Z,7.66
2023-02-22T11:08:24.877Z,7.64
2023-02-22T11:10:53.921Z,7.89
2023-02-22T11:13:26.874Z,7.88
2023-02-22T11:15:54.969Z,8.06
2023-02-22T11:18:28.087Z,7.96
2023-02-22T11:21:07.792Z,8.12
2023-02-22T11:23:36.179Z,8.37
2023-02-22T11:26:07.737Z,8.42
2023-02-22T11:28:35.618Z,8.47
2023-02-22T11:31:15.512Z,8.46
2023-02-22T11:33:52.455Z,8.52
2023-02-22T11:36:43.339Z,8.62
2023-02-22T11:39:23.040Z,8.68
2023-02-22T11:41:50.610Z,8.73
2023-02-22T11:44:25.271Z,8.84
2023-02-22T11:46:55.600Z,8.96
2023-02-22T11:49:24.806Z,9.06
2023-02-22T11:52:07.399Z,9.14
2023-02-22T11:54:58.023Z,9.17
2023-02-22T11:57:46.270Z,9.37
2023-02-22T12:00:24.577Z,9.48
2023-02-22T12:03:03.761Z,9.49
2023-02-22T12:05:40.484Z,9.58
2023-02-22T12:08:20.434Z,9.67
2023-02-22T12:10:57.538Z,9.78
2023-02-22T12:13:34.023Z,9.83
2023-02-22T12:16:12.967Z,9.85
2023-02-22T12:18:46.115Z,9.98
2023-02-22T12:21:16.794Z,10.15
2023-02-22T12:23:52.445Z,10.08
2023-02-22T12:26:25.719Z,9.98
2023-02-22T12:28:59.299Z,10.19
2023-02-22T12:31:29.624Z,10.27
2023-02-22T12:34:02.239Z,10.31
2023-02-22T12:36:35.620Z,10.12
2023-02-22T12:39:13.138Z,10.14
2023-02-22T12:41:44.856Z,10.27
2023-02-22T12:44:20.157Z,10.49
2023-02-22T12:46:50.263Z,10.61
2023-02-22T12:49:22.477Z,10.54
2023-02-22T12:51:55.080Z,10.65
2023-02-22T12:54:29.332Z,10.75
2023-02-22T12:56:58.653Z,10.73
2023-02-22T12:59:30.598Z,10.86
2023-02-22T13:02:01.865Z,10.96
2023-02-22T13:04:31.779Z,11.08
2023-02-22T13:07:12.620Z,11.20
2023-02-22T13:09:55.802Z,11.18
2023-02-22T13:12:30.267Z,11.17
2023-02-22T13:15:04.800Z,11.18
2023-02-22T13:17:37.638Z,11.21
2023-02-22T13:20:10.874Z,11.24
2023-02-22T13:22:42.091Z,11.37
2023-02-22T13:25:16.238Z,11.28
2023-02-22T13:27:48.648Z,11.31
2023-02-22T13:30:20.865Z,11.58
2023-02-22T13:33:18.679Z,11.63
2023-02-22T13:35:57.329Z,11.52
2023-02-22T13:38:39.206Z,11.58
2023-02-22T13:41:20.828Z,11.57
2023-02-22T13:44:04.176Z,11.67
2023-02-22T13:47:00.051Z,11.90
2023-02-22T13:49:54.538Z,11.96
2023-02-22T13:52:23.306Z,11.97
2023-02-22T13:54:54.429Z,11.97
2023-02-22T13:57:25.822Z,11.79
2023-02-22T14:00:22.760Z,11.84
2023-02-22T14:03:02.838Z,11.90
2023-02-22T14:05:51.384Z,11.97
2023-02-22T14:08:42.105Z,12.03
2023-02-22T14:11:57.699Z,11.92
2023-02-22T14:14:26.637Z,12.01
2023-02-22T14:17:17.292Z,12.07
2023-02-22T14:20:16.493Z,12.14
2023-02-22T14:22:46.936Z,12.03
2023-02-22T14:25:37.302Z,12.25
2023-02-22T14:28:06.479Z,12.36
2023-02-22T14:30:37.211Z,12.26
2023-02-22T14:33:05.433Z,12.36
2023-02-22T14:35:49.151Z,12.37
2023-02-22T14:38:19.119Z,12.08
2023-02-22T14:40:49.441Z,12.13
2023-02-22T14:43:19.925Z,12.18
2023-02-22T14:45:52.980Z,11.90
2023-02-22T14:48:25.319Z,12.08
2023-02-22T14:50:54.668Z,12.00
2023-02-22T14:53:27.105Z,11.87
2023-02-22T14:55:58.265Z,11.98
2023-02-22T14:58:31.905Z,12.02
2023-02-22T15:01:00.873Z,12.21
2023-02-22T15:03:37.072Z,12.15
2023-02-22T15:06:06.274Z,12.15
2023-02-22T15:08:34.452Z,12.14
2023-02-22T15:11:03.443Z,12.03
2023-02-22T15:13:34.146Z,12.20
2023-02-22T15:16:04.384Z,11.94
2023-02-22T15:18:35.532Z,11.79
2023-02-22T15:21:10.101Z,11.78
2023-02-22T15:23:44.363Z,11.80
2023-02-22T15:26:20.095Z,11.74
2023-02-22T15:28:48.648Z,11.58
2023-02-22T15:31:22.654Z,11.56
2023-02-22T15:33:52.897Z,11.70
2023-02-22T15:36:22.693Z,11.87
2023-02-22T15:38:51.279Z,11.88
2023-02-22T15:41:27.760Z,11.77
2023-02-22T15:44:03.407Z,11.99
2023-02-22T15:46:35.058Z,11.90
2023-02-22T15:49:20.245Z,11.84
2023-02-22T15:51:51.557Z,12.01
2023-02-22T15:54:27.037Z,12.03
2023-02-22T15:56:56.555Z,12.09
2023-02-22T15:59:30.282Z,11.99
2023-02-22T16:01:59.907Z,11.97
2023-02-22T16:04:30.313Z,11.86
2023-02-22T16:07:04.882Z,11.94
2023-02-22T16:09:33.213Z,11.89
2023-02-22T16:12:12.143Z,11.91
2023-02-22T16:14:44.801Z,11.74
2023-02-22T16:17:30.594Z,11.74
2023-02-22T16:19:58.963Z,11.63
2023-02-22T16:22:29.588Z,11.53
2023-02-22T16:25:16.639Z,11.53
2023-02-22T16:27:48.310Z,11.39
2023-02-22T16:30:25.994Z,11.27
2023-02-22T16:32:56.674Z,11.18
2023-02-22T16:35:28.490Z,11.14
2023-02-22T16:37:57.988Z,11.06
2023-02-22T16:40:27.490Z,10.96
2023-02-22T16:42:55.014Z,10.84
2023-02-22T16:45:23.237Z,10.74
2023-02-22T16:47:52.588Z,10.69
2023-02-22T16:50:21.833Z,10.53
2023-02-22T16:52:49.466Z,10.50
2023-02-22T16:55:18.758Z,10.41
2023-02-22T16:57:46.273Z,10.37
2023-02-22T17:00:17.857Z,10.28
2023-02-22T17:02:45.969Z,10.23
2023-02-22T17:05:15.242Z,10.19
2023-02-22T17:07:44.082Z,10.04
2023-02-22T17:10:16.373Z,10.00
2023-02-22T17:12:46.785Z,9.95
2023-02-22T17:15:22.147Z,9.84
2023-02-22T17:17:50.335Z,9.79
2023-02-22T17:20:24.811Z,9.76
2023-02-22T17:22:53.869Z,9.70
2023-02-22T17:25:25.417Z,9.62
2023-02-22T17:27:52.957Z,9.54
2023-02-22T17:30:23.908Z,9.55
2023-02-22T17:32:52.453Z,9.53
2023-02-22T17:35:23.101Z,9.47
2023-02-22T17:37:50.952Z,9.40
2023-02-22T17:40:19.874Z,9.31
2023-02-22T17:42:47.691Z,9.29
2023-02-22T17:45:15.288Z,9.18
2023-02-22T17:47:43.288Z,9.10
2023-02-22T17:50:11.536Z,9.04
2023-02-22T17:52:39.494Z,8.93
2023-02-22T17:55:07.541Z,8.89
2023-02-22T17:57:36.841Z,8.97
2023-02-22T18:00:12.387Z,8.94
2023-02-22T18:02:42.543Z,8.85
2023-02-22T18:05:18.417Z,8.84
2023-02-22T18:07:46.937Z,8.80
2023-02-22T18:10:14.992Z,8.73
2023-02-22T18:12:47.118Z,8.68
2023-02-22T18:15:17.464Z,8.59
2023-02-22T18:17:45.660Z,8.61
2023-02-22T18:20:14.795Z,8.55
2023-02-22T18:22:44.351Z,8.51
2023-02-22T18:25:13.701Z,8.52
2023-02-22T18:27:43.074Z,8.42
2023-02-22T18:30:13.238Z,8.23
2023-02-22T18:32:40.831Z,8.31
2023-02-22T18:35:08.861Z,8.45
2023-02-22T18:37:36.828Z,8.50
2023-02-22T18:40:10.311Z,8.47
2023-02-22T18:42:38.855Z,8.44
2023-02-22T18:45:08.195Z,8.38
2023-02-22T18:47:47.546Z,8.34
2023-02-22T18:50:17.153Z,8.29
2023-02-22T18:52:48.093Z,8.23
2023-02-22T18:55:17.206Z,8.23
2023-02-22T18:57:45.160Z,8.18
2023-02-22T19:00:17.871Z,8.19
2023-02-22T19:02:47.034Z,8.11
2023-02-22T19:05:18.729Z,8.13
2023-02-22T19:07:46.756Z,8.08
2023-02-22T19:10:14.474Z,8.07
2023-02-22T19:12:42.036Z,8.09
2023-02-22T19:15:11.763Z,8.14
2023-02-22T19:17:40.629Z,8.00
2023-02-22T19:20:11.882Z,7.94
2023-02-22T19:22:39.530Z,7.80
2023-02-22T19:25:08.062Z,7.70
2023-02-22T19:27:35.796Z,7.65
2023-02-22T19:30:04.610Z,7.65
2023-02-22T19:32:33.766Z,7.80
2023-02-22T19:35:02.969Z,7.64
2023-02-22T19:37:35.963Z,7.64
2023-02-22T19:40:06.705Z,7.65
2023-02-22T19:42:34.379Z,7.56
2023-02-22T19:45:09.551Z,7.39
2023-02-22T19:47:37.377Z,7.30
2023-02-22T19:50:06.662Z,7.41
2023-02-22T19:52:38.918Z,7.51
2023-02-22T19:55:12.447Z,7.50
2023-02-22T19:57:40.845Z,7.57
2023-02-22T20:00:12.309Z,7.49
2023-02-22T20:02:42.694Z,7.59
2023-02-22T20:05:16.291Z,7.62
2023-02-22T20:07:46.256Z,7.51
2023-02-22T20:10:15.946Z,7.44
2023-02-22T20:12:43.727Z,7.51
2023-02-22T20:15:11.923Z,7.46
2023-02-22T20:17:39.559Z,7.39
2023-02-22T20:20:09.307Z,7.37
2023-02-22T20:22:36.934Z,7.52
2023-02-22T20:25:06.382Z,7.46
2023-02-22T20:27:34.650Z,7.36
2023-02-22T20:30:02.645Z,7.26
2023-02-22T20:32:36.199Z,7.23
2023-02-22T20:35:04.043Z,7.17
2023-02-22T20:37:33.384Z,7.13
2023-02-22T20:40:01.674Z,7.16
2023-02-22T20:45:38.952Z,7.09
2023-02-22T20:48:06.869Z,7.12
2023-02-22T20:50:36.058Z,7.24
2023-02-22T20:53:03.628Z,7.05
2023-02-22T20:55:31.407Z,7.11
2023-02-22T20:58:00.410Z,7.28
2023-02-22T21:00:28.039Z,7.25
2023-02-22T21:02:56.497Z,7.18
2023-02-22T21:05:24.077Z,7.22
2023-02-22T21:07:51.694Z,7.24
2023-02-22T21:10:20.977Z,7.02
2023-02-22T21:12:48.651Z,7.04
2023-02-22T21:15:17.988Z,7.06
2023-02-22T21:17:47.541Z,7.08
2023-02-22T21:20:15.416Z,7.05
2023-02-22T21:22:43.840Z,7.03
2023-02-22T21:25:13.433Z,7.13
2023-02-22T21:27:42.143Z,7.09
2023-02-22T21:30:12.382Z,7.13
2023-02-22T21:32:41.378Z,7.14
2023-02-22T21:35:09.851Z,7.15
2023-02-22T21:37:39.001Z,7.18
2023-02-22T21:40:11.887Z,7.14
2023-02-22T21:42:39.572Z,7.11
2023-02-22T21:45:08.475Z,7.13
2023-02-22T21:47:36.999Z,7.21
2023-02-22T21:50:10.485Z,7.31
2023-02-22T21:52:38.553Z,7.29
2023-02-22T21:55:07.263Z,7.33
2023-02-22T21:57:35.036Z,7.31
2023-02-22T22:00:12.844Z,7.24
2023-02-22T22:02:40.579Z,7.21
2023-02-22T22:05:10.245Z,7.26
2023-02-22T22:07:37.801Z,7.22
2023-02-22T22:10:06.826Z,7.25
2023-02-22T22:12:39.431Z,7.10
2023-02-22T22:15:13.143Z,7.08
2023-02-22T22:21:55.936Z,7.11
2023-02-22T22:24:47.074Z,7.21
2023-02-22T22:27:37.425Z,7.26
2023-02-22T22:30:53.207Z,7.25
2023-02-22T22:41:08.670Z,7.40
2023-02-22T22:46:54.720Z,7.32
2023-02-22T22:50:02.135Z,7.19
2023-02-22T22:55:51.845Z,7.15
2023-02-22T22:58:34.400Z,7.28
2023-02-22T23:01:28.021Z,7.32
2023-02-22T23:04:21.966Z,7.33
2023-02-22T23:07:45.790Z,7.41
2023-02-22T23:12:21.140Z,7.51
2023-02-22T23:14:17.047Z,7.48
2023-02-22T23:17:41.324Z,7.55
2023-02-22T23:20:38.770Z,7.63
2023-02-22T23:23:32.806Z,7.59
2023-02-22T23:27:02.480Z,7.62
2023-02-22T23:40:50.188Z,7.62
